sensor_id;sensor_type;location;lat;lon;timestamp;pressure;altitude;pressure_sealevel;temperature;humidity
57568;BME280;43403;51.948;5.922;2023-03-03T00:00:22;102442.19;;;3.53;100.00
57568;BME280;43403;51.948;5.922;2023-03-03T00:02:48;102446.03;;;3.43;100.00
57568;BME280;43403;51.948;5.922;2023-03-03T00:05:15;102441.72;;;3.43;100.00
57568;BME280;43403;51.948;5.922;2023-03-03T00:07:43;102441.72;;;3.43;100.00
57568;BME280;43403;51.948;5.922;2023-03-03T00:10:11;102443.44;;;3.43;100.00
57568;BME280;43403;51.948;5.922;2023-03-03T00:12:44;102447.19;;;3.35;100.00
57568;BME280;43403;51.948;5.922;2023-03-03T00:15:12;102447.25;;;3.34;100.00
57568;BME280;43403;51.948;5.922;2023-03-03T00:17:39;102449.84;;;3.34;100.00
57568;BME280;43403;51.948;5.922;2023-03-03T00:22:50;102447.59;;;3.25;100.00
57568;BME280;43403;51.948;5.922;2023-03-03T00:25:30;102445.97;;;3.22;100.00
57568;BME280;43403;51.948;5.922;2023-03-03T00:28:40;102451.25;;;3.19;100.00
57568;BME280;43403;51.948;5.922;2023-03-03T00:30:46;102457.31;;;3.20;100.00
57568;BME280;43403;51.948;5.922;2023-03-03T00:33:18;102451.16;;;3.22;100.00
57568;BME280;43403;51.948;5.922;2023-03-03T00:35:46;102453.69;;;3.24;100.00
57568;BME280;43403;51.948;5.922;2023-03-03T00:38:13;102457.97;;;3.25;100.00
57568;BME280;43403;51.948;5.922;2023-03-03T00:40:41;102457.88;;;3.28;100.00
57568;BME280;43403;51.948;5.922;2023-03-03T00:43:14;102456.22;;;3.25;100.00
57568;BME280;43403;51.948;5.922;2023-03-03T00:45:44;102457.00;;;3.27;100.00
57568;BME280;43403;51.948;5.922;2023-03-03T00:48:31;102463.00;;;3.29;100.00
57568;BME280;43403;51.948;5.922;2023-03-03T00:53:48;102460.50;;;3.26;100.00
57568;BME280;43403;51.948;5.922;2023-03-03T00:56:14;102453.63;;;3.25;100.00
57568;BME280;43403;51.948;5.922;2023-03-03T00:58:41;102453.69;;;3.24;100.00
57568;BME280;43403;51.948;5.922;2023-03-03T01:01:09;102457.19;;;3.23;100.00
57568;BME280;43403;51.948;5.922;2023-03-03T01:03:35;102449.34;;;3.24;100.00
57568;BME280;43403;51.948;5.922;2023-03-03T01:06:02;102451.91;;;3.26;100.00
57568;BME280;43403;51.948;5.922;2023-03-03T01:08:28;102452.97;;;3.20;100.00
57568;BME280;43403;51.948;5.922;2023-03-03T01:10:55;102454.78;;;3.18;100.00
57568;BME280;43403;51.948;5.922;2023-03-03T01:13:26;102456.94;;;3.07;100.00
57568;BME280;43403;51.948;5.922;2023-03-03T01:15:53;102455.06;;;3.10;100.00
57568;BME280;43403;51.948;5.922;2023-03-03T01:18:19;102459.50;;;3.07;100.00
57568;BME280;43403;51.948;5.922;2023-03-03T01:20:46;102455.41;;;3.01;100.00
57568;BME280;43403;51.948;5.922;2023-03-03T01:23:12;102453.81;;;2.97;100.00
57568;BME280;43403;51.948;5.922;2023-03-03T01:25:38;102447.63;;;3.01;100.00
57568;BME280;43403;51.948;5.922;2023-03-03T01:28:05;102445.03;;;3.01;100.00
57568;BME280;43403;51.948;5.922;2023-03-03T01:30:31;102446.66;;;3.04;100.00
57568;BME280;43403;51.948;5.922;2023-03-03T01:32:57;102450.03;;;3.06;100.00
57568;BME280;43403;51.948;5.922;2023-03-03T01:35:24;102451.75;;;3.07;100.00
57568;BME280;43403;51.948;5.922;2023-03-03T01:37:50;102451.78;;;3.05;100.00
57568;BME280;43403;51.948;5.922;2023-03-03T01:40:18;102453.53;;;3.05;100.00
57568;BME280;43403;51.948;5.922;2023-03-03T01:42:45;102458.78;;;3.03;100.00
57568;BME280;43403;51.948;5.922;2023-03-03T01:45:21;102454.56;;;3.01;100.00
57568;BME280;43403;51.948;5.922;2023-03-03T01:50:16;102455.34;;;3.03;100.00
57568;BME280;43403;51.948;5.922;2023-03-03T01:52:45;102459.69;;;3.02;100.00
57568;BME280;43403;51.948;5.922;2023-03-03T01:55:19;102460.53;;;3.03;100.00
57568;BME280;43403;51.948;5.922;2023-03-03T01:57:51;102463.09;;;3.04;100.00
57568;BME280;43403;51.948;5.922;2023-03-03T02:00:21;102470.72;;;3.07;100.00
57568;BME280;43403;51.948;5.922;2023-03-03T02:02:47;102466.41;;;3.08;100.00
57568;BME280;43403;51.948;5.922;2023-03-03T02:05:14;102467.25;;;3.08;100.00
57568;BME280;43403;51.948;5.922;2023-03-03T02:07:41;102470.78;;;3.06;100.00
57568;BME280;43403;51.948;5.922;2023-03-03T02:10:15;102467.19;;;3.10;100.00
57568;BME280;43403;51.948;5.922;2023-03-03T02:12:43;102469.94;;;3.05;100.00
57568;BME280;43403;51.948;5.922;2023-03-03T02:15:14;102472.28;;;3.11;100.00
57568;BME280;43403;51.948;5.922;2023-03-03T02:17:40;102475.69;;;3.13;100.00
57568;BME280;43403;51.948;5.922;2023-03-03T02:20:15;102473.22;;;3.10;100.00
57568;BME280;43403;51.948;5.922;2023-03-03T02:25:43;102458.63;;;3.08;100.00
57568;BME280;43403;51.948;5.922;2023-03-03T02:28:10;102474.06;;;3.11;100.00
57568;BME280;43403;51.948;5.922;2023-03-03T02:30:37;102465.50;;;3.09;100.00
57568;BME280;43403;51.948;5.922;2023-03-03T02:33:04;102466.31;;;3.09;100.00
57568;BME280;43403;51.948;5.922;2023-03-03T02:35:32;102470.63;;;3.10;100.00
57568;BME280;43403;51.948;5.922;2023-03-03T02:38:08;102469.84;;;3.08;100.00
57568;BME280;43403;51.948;5.922;2023-03-03T02:40:39;102463.91;;;3.05;100.00
57568;BME280;43403;51.948;5.922;2023-03-03T02:43:07;102467.25;;;3.08;100.00
57568;BME280;43403;51.948;5.922;2023-03-03T02:45:40;102476.53;;;3.14;100.00
57568;BME280;43403;51.948;5.922;2023-03-03T02:48:07;102464.53;;;3.11;100.00
57568;BME280;43403;51.948;5.922;2023-03-03T02:50:33;102459.19;;;3.16;100.00
57568;BME280;43403;51.948;5.922;2023-03-03T02:52:59;102463.59;;;3.14;100.00
57568;BME280;43403;51.948;5.922;2023-03-03T02:55:25;102456.81;;;3.10;100.00
57568;BME280;43403;51.948;5.922;2023-03-03T02:57:52;102451.44;;;3.14;100.00
57568;BME280;43403;51.948;5.922;2023-03-03T03:00:18;102455.13;;;3.09;100.00
57568;BME280;43403;51.948;5.922;2023-03-03T03:02:46;102461.03;;;3.12;100.00
57568;BME280;43403;51.948;5.922;2023-03-03T03:05:12;102454.81;;;3.16;100.00
57568;BME280;43403;51.948;5.922;2023-03-03T03:07:39;102463.41;;;3.19;100.00
57568;BME280;43403;51.948;5.922;2023-03-03T03:10:05;102464.38;;;3.16;100.00
57568;BME280;43403;51.948;5.922;2023-03-03T03:12:31;102462.59;;;3.16;100.00
57568;BME280;43403;51.948;5.922;2023-03-03T03:14:58;102455.84;;;3.12;100.00
57568;BME280;43403;51.948;5.922;2023-03-03T03:17:24;102458.25;;;3.17;100.00
57568;BME280;43403;51.948;5.922;2023-03-03T03:19:51;102460.13;;;3.13;100.00
57568;BME280;43403;51.948;5.922;2023-03-03T03:22:17;102463.44;;;3.17;100.00
57568;BME280;43403;51.948;5.922;2023-03-03T03:24:44;102465.09;;;3.20;100.00
57568;BME280;43403;51.948;5.922;2023-03-03T03:27:11;102467.97;;;3.12;100.00
57568;BME280;43403;51.948;5.922;2023-03-03T03:29:37;102473.09;;;3.13;100.00
57568;BME280;43403;51.948;5.922;2023-03-03T03:32:03;102470.56;;;3.12;100.00
57568;BME280;43403;51.948;5.922;2023-03-03T03:34:30;102474.00;;;3.12;100.00
57568;BME280;43403;51.948;5.922;2023-03-03T03:36:56;102468.03;;;3.10;100.00
57568;BME280;43403;51.948;5.922;2023-03-03T03:39:22;102471.50;;;3.09;100.00
57568;BME280;43403;51.948;5.922;2023-03-03T03:41:49;102467.91;;;3.13;100.00
57568;BME280;43403;51.948;5.922;2023-03-03T03:44:15;102472.25;;;3.13;100.00
57568;BME280;43403;51.948;5.922;2023-03-03T03:46:41;102462.84;;;3.10;100.00
57568;BME280;43403;51.948;5.922;2023-03-03T03:49:07;102468.19;;;3.06;100.00
57568;BME280;43403;51.948;5.922;2023-03-03T03:51:34;102471.59;;;3.08;100.00
57568;BME280;43403;51.948;5.922;2023-03-03T03:54:03;102478.28;;;3.13;100.00
57568;BME280;43403;51.948;5.922;2023-03-03T03:56:29;102481.59;;;3.17;100.00
57568;BME280;43403;51.948;5.922;2023-03-03T03:58:55;102475.47;;;3.20;100.00
57568;BME280;43403;51.948;5.922;2023-03-03T04:01:22;102471.13;;;3.20;100.00
57568;BME280;43403;51.948;5.922;2023-03-03T04:03:48;102469.41;;;3.19;100.00
57568;BME280;43403;51.948;5.922;2023-03-03T04:06:14;102471.13;;;3.20;100.00
57568;BME280;43403;51.948;5.922;2023-03-03T04:08:41;102473.94;;;3.14;100.00
57568;BME280;43403;51.948;5.922;2023-03-03T04:11:07;102473.22;;;3.10;100.00
57568;BME280;43403;51.948;5.922;2023-03-03T04:13:33;102468.63;;;3.17;100.00
57568;BME280;43403;51.948;5.922;2023-03-03T04:16:00;102469.31;;;3.22;100.00
57568;BME280;43403;51.948;5.922;2023-03-03T04:18:27;102467.50;;;3.24;100.00
57568;BME280;43403;51.948;5.922;2023-03-03T04:20:53;102465.75;;;3.25;100.00
57568;BME280;43403;51.948;5.922;2023-03-03T04:23:20;102466.38;;;3.31;100.00
57568;BME280;43403;51.948;5.922;2023-03-03T04:25:46;102473.97;;;3.36;100.00
57568;BME280;43403;51.948;5.922;2023-03-03T04:28:13;102469.81;;;3.32;100.00
57568;BME280;43403;51.948;5.922;2023-03-03T04:30:40;102467.31;;;3.29;100.00
57568;BME280;43403;51.948;5.922;2023-03-03T04:33:06;102468.19;;;3.29;100.00
57568;BME280;43403;51.948;5.922;2023-03-03T04:35:32;102470.78;;;3.29;100.00
57568;BME280;43403;51.948;5.922;2023-03-03T04:37:59;102474.25;;;3.28;100.00
57568;BME280;43403;51.948;5.922;2023-03-03T04:40:25;102476.84;;;3.28;100.00
57568;BME280;43403;51.948;5.922;2023-03-03T04:42:52;102473.44;;;3.28;100.00
57568;BME280;43403;51.948;5.922;2023-03-03T04:45:18;102470.88;;;3.26;100.00
57568;BME280;43403;51.948;5.922;2023-03-03T04:47:44;102471.00;;;3.23;100.00
57568;BME280;43403;51.948;5.922;2023-03-03T04:50:11;102467.59;;;3.21;100.00
57568;BME280;43403;51.948;5.922;2023-03-03T04:52:37;102470.88;;;3.26;100.00
57568;BME280;43403;51.948;5.922;2023-03-03T04:55:03;102474.31;;;3.27;100.00
57568;BME280;43403;51.948;5.922;2023-03-03T04:57:30;102471.56;;;3.31;100.00
57568;BME280;43403;51.948;5.922;2023-03-03T04:59:57;102474.25;;;3.28;100.00
57568;BME280;43403;51.948;5.922;2023-03-03T05:02:23;102482.88;;;3.29;100.00
57568;BME280;43403;51.948;5.922;2023-03-03T05:04:49;102482.09;;;3.27;100.00
57568;BME280;43403;51.948;5.922;2023-03-03T05:07:16;102481.38;;;3.23;100.00
57568;BME280;43403;51.948;5.922;2023-03-03T05:09:44;102486.44;;;3.26;100.00
57568;BME280;43403;51.948;5.922;2023-03-03T05:12:10;102485.59;;;3.26;100.00
57568;BME280;43403;51.948;5.922;2023-03-03T05:14:36;102484.63;;;3.28;100.00
57568;BME280;43403;51.948;5.922;2023-03-03T05:17:03;102487.91;;;3.33;100.00
57568;BME280;43403;51.948;5.922;2023-03-03T05:19:31;102496.72;;;3.29;100.00
57568;BME280;43403;51.948;5.922;2023-03-03T05:21:57;102488.13;;;3.27;100.00
57568;BME280;43403;51.948;5.922;2023-03-03T05:24:23;102484.53;;;3.31;100.00
57568;BME280;43403;51.948;5.922;2023-03-03T05:26:50;102490.63;;;3.30;100.00
57568;BME280;43403;51.948;5.922;2023-03-03T05:29:16;102494.19;;;3.28;100.00
57568;BME280;43403;51.948;5.922;2023-03-03T05:31:43;102493.38;;;3.26;100.00
57568;BME280;43403;51.948;5.922;2023-03-03T05:34:10;102493.50;;;3.23;100.00
57568;BME280;43403;51.948;5.922;2023-03-03T05:36:37;102489.94;;;3.25;100.00
57568;BME280;43403;51.948;5.922;2023-03-03T05:39:03;102486.22;;;3.32;100.00
57568;BME280;43403;51.948;5.922;2023-03-03T05:41:29;102488.50;;;3.40;100.00
57568;BME280;43403;51.948;5.922;2023-03-03T05:43:56;102494.59;;;3.39;100.00
57568;BME280;43403;51.948;5.922;2023-03-03T05:46:22;102488.56;;;3.39;100.00
57568;BME280;43403;51.948;5.922;2023-03-03T05:48:50;102493.69;;;3.40;100.00
57568;BME280;43403;51.948;5.922;2023-03-03T05:51:16;102504.91;;;3.41;100.00
57568;BME280;43403;51.948;5.922;2023-03-03T05:53:43;102499.78;;;3.39;100.00
57568;BME280;43403;51.948;5.922;2023-03-03T05:56:09;102498.88;;;3.40;100.00
57568;BME280;43403;51.948;5.922;2023-03-03T05:58:35;102493.09;;;3.33;100.00
57568;BME280;43403;51.948;5.922;2023-03-03T06:01:02;102498.34;;;3.32;100.00
57568;BME280;43403;51.948;5.922;2023-03-03T06:03:28;102495.06;;;3.27;100.00
57568;BME280;43403;51.948;5.922;2023-03-03T06:05:54;102502.19;;;3.22;100.00
57568;BME280;43403;51.948;5.922;2023-03-03T06:08:21;102507.38;;;3.22;100.00
57568;BME280;43403;51.948;5.922;2023-03-03T06:10:47;102509.97;;;3.22;100.00
57568;BME280;43403;51.948;5.922;2023-03-03T06:13:13;102509.97;;;3.22;100.00
57568;BME280;43403;51.948;5.922;2023-03-03T06:15:40;102515.16;;;3.22;100.00
57568;BME280;43403;51.948;5.922;2023-03-03T06:18:06;102509.84;;;3.25;100.00
57568;BME280;43403;51.948;5.922;2023-03-03T06:20:33;102515.88;;;3.25;100.00
57568;BME280;43403;51.948;5.922;2023-03-03T06:23:00;102520.22;;;3.25;100.00
57568;BME280;43403;51.948;5.922;2023-03-03T06:25:27;102521.06;;;3.25;100.00
57568;BME280;43403;51.948;5.922;2023-03-03T06:27:53;102527.25;;;3.21;100.00
57568;BME280;43403;51.948;5.922;2023-03-03T06:30:20;102522.03;;;3.23;100.00
57568;BME280;43403;51.948;5.922;2023-03-03T06:32:46;102532.28;;;3.26;100.00
57568;BME280;43403;51.948;5.922;2023-03-03T06:35:13;102521.78;;;3.29;100.00
57568;BME280;43403;51.948;5.922;2023-03-03T06:37:39;102528.97;;;3.22;100.00
57568;BME280;43403;51.948;5.922;2023-03-03T06:40:06;102530.63;;;3.23;100.00
57568;BME280;43403;51.948;5.922;2023-03-03T06:42:32;102527.22;;;3.23;100.00
57568;BME280;43403;51.948;5.922;2023-03-03T06:44:59;102526.97;;;3.29;100.00
57568;BME280;43403;51.948;5.922;2023-03-03T06:47:25;102533.81;;;3.31;100.00
57568;BME280;43403;51.948;5.922;2023-03-03T06:49:51;102534.88;;;3.26;100.00
57568;BME280;43403;51.948;5.922;2023-03-03T06:52:19;102534.75;;;3.29;100.00
57568;BME280;43403;51.948;5.922;2023-03-03T06:54:47;102546.84;;;3.30;100.00
57568;BME280;43403;51.948;5.922;2023-03-03T06:57:19;102539.94;;;3.29;100.00
57568;BME280;43403;51.948;5.922;2023-03-03T06:59:50;102551.19;;;3.29;100.00
57568;BME280;43403;51.948;5.922;2023-03-03T07:02:17;102541.59;;;3.31;100.00
57568;BME280;43403;51.948;5.922;2023-03-03T07:04:44;102544.97;;;3.33;100.00
57568;BME280;43403;51.948;5.922;2023-03-03T07:09:46;102546.66;;;3.34;100.00
57568;BME280;43403;51.948;5.922;2023-03-03T07:12:18;102544.06;;;3.34;100.00
57568;BME280;43403;51.948;5.922;2023-03-03T07:14:45;102559.53;;;3.38;100.00
57568;BME280;43403;51.948;5.922;2023-03-03T07:17:14;102556.78;;;3.41;100.00
57568;BME280;43403;51.948;5.922;2023-03-03T07:19:45;102550.66;;;3.43;100.00
57568;BME280;43403;51.948;5.922;2023-03-03T07:24:39;102560.13;;;3.44;100.00
57568;BME280;43403;51.948;5.922;2023-03-03T07:27:27;102569.63;;;3.45;100.00
57568;BME280;43403;51.948;5.922;2023-03-03T07:29:54;102571.13;;;3.51;100.00
57568;BME280;43403;51.948;5.922;2023-03-03T07:32:28;102573.88;;;3.46;100.00
57568;BME280;43403;51.948;5.922;2023-03-03T07:34:59;102572.03;;;3.50;100.00
57568;BME280;43403;51.948;5.922;2023-03-03T07:37:32;102581.44;;;3.52;100.00
57568;BME280;43403;51.948;5.922;2023-03-03T07:40:00;102577.03;;;3.54;100.00
57568;BME280;43403;51.948;5.922;2023-03-03T07:42:27;102578.06;;;3.50;100.00
57568;BME280;43403;51.948;5.922;2023-03-03T07:45:00;102581.34;;;3.55;100.00
57568;BME280;43403;51.948;5.922;2023-03-03T07:47:28;102581.28;;;3.57;100.00
57568;BME280;43403;51.948;5.922;2023-03-03T07:49:56;102584.66;;;3.59;100.00
57568;BME280;43403;51.948;5.922;2023-03-03T07:52:41;102594.97;;;3.61;100.00
57568;BME280;43403;51.948;5.922;2023-03-03T08:03:10;102602.34;;;3.71;100.00
57568;BME280;43403;51.948;5.922;2023-03-03T08:05:39;102601.22;;;3.79;100.00
57568;BME280;43403;51.948;5.922;2023-03-03T08:15:48;102606.28;;;3.82;100.00
57568;BME280;43403;51.948;5.922;2023-03-03T08:18:22;102613.91;;;3.86;100.00
57568;BME280;43403;51.948;5.922;2023-03-03T08:20:51;102619.81;;;3.90;100.00
57568;BME280;43403;51.948;5.922;2023-03-03T08:23:18;102612.75;;;3.93;100.00
57568;BME280;43403;51.948;5.922;2023-03-03T08:25:45;102624.00;;;3.94;100.00
57568;BME280;43403;51.948;5.922;2023-03-03T08:28:11;102623.88;;;3.97;100.00
57568;BME280;43403;51.948;5.922;2023-03-03T08:30:39;102634.88;;;4.04;100.00
57568;BME280;43403;51.948;5.922;2023-03-03T08:33:06;102629.84;;;3.99;100.00
57568;BME280;43403;51.948;5.922;2023-03-03T08:35:32;102626.19;;;4.05;100.00
57568;BME280;43403;51.948;5.922;2023-03-03T08:37:59;102628.59;;;4.09;100.00
57568;BME280;43403;51.948;5.922;2023-03-03T08:40:25;102631.88;;;4.14;100.00
57568;BME280;43403;51.948;5.922;2023-03-03T08:42:51;102638.63;;;4.19;100.00
57568;BME280;43403;51.948;5.922;2023-03-03T08:45:19;102634.22;;;4.21;100.00
57568;BME280;43403;51.948;5.922;2023-03-03T08:47:45;102632.41;;;4.23;100.00
57568;BME280;43403;51.948;5.922;2023-03-03T08:50:12;102634.75;;;4.29;100.00
57568;BME280;43403;51.948;5.922;2023-03-03T08:52:39;102634.50;;;4.35;100.00
57568;BME280;43403;51.948;5.922;2023-03-03T08:55:05;102633.41;;;4.41;100.00
57568;BME280;43403;51.948;5.922;2023-03-03T08:57:33;102634.09;;;4.46;100.00
57568;BME280;43403;51.948;5.922;2023-03-03T09:00:00;102632.31;;;4.46;100.00
57568;BME280;43403;51.948;5.922;2023-03-03T09:02:26;102638.31;;;4.48;100.00
57568;BME280;43403;51.948;5.922;2023-03-03T09:04:53;102642.66;;;4.48;100.00
57568;BME280;43403;51.948;5.922;2023-03-03T09:07:19;102636.31;;;4.55;100.00
57568;BME280;43403;51.948;5.922;2023-03-03T09:09:46;102638.59;;;4.63;100.00
57568;BME280;43403;51.948;5.922;2023-03-03T09:12:16;102644.31;;;4.71;100.00
57568;BME280;43403;51.948;5.922;2023-03-03T09:14:43;102648.66;;;4.70;100.00
57568;BME280;43403;51.948;5.922;2023-03-03T09:17:18;102643.94;;;4.80;100.00
57568;BME280;43403;51.948;5.922;2023-03-03T09:19:47;102647.13;;;4.87;100.00
57568;BME280;43403;51.948;5.922;2023-03-03T09:24:42;102640.56;;;4.99;100.00
57568;BME280;43403;51.948;5.922;2023-03-03T09:27:28;102636.03;;;5.04;100.00
57568;BME280;43403;51.948;5.922;2023-03-03T09:29:56;102635.75;;;5.10;100.00
57568;BME280;43403;51.948;5.922;2023-03-03T09:32:30;102636.38;;;5.15;100.00
57568;BME280;43403;51.948;5.922;2023-03-03T09:34:58;102634.38;;;5.22;100.00
57568;BME280;43403;51.948;5.922;2023-03-03T09:37:31;102640.97;;;5.29;100.00
57568;BME280;43403;51.948;5.922;2023-03-03T09:40:01;102631.28;;;5.32;100.00
57568;BME280;43403;51.948;5.922;2023-03-03T09:43:25;102638.69;;;5.42;100.00
57568;BME280;43403;51.948;5.922;2023-03-03T09:45:38;102635.81;;;5.48;100.00
57568;BME280;43403;51.948;5.922;2023-03-03T09:55:40;102650.81;;;5.62;100.00
57568;BME280;43403;51.948;5.922;2023-03-03T10:06:35;102655.81;;;5.66;100.00
57568;BME280;43403;51.948;5.922;2023-03-03T10:09:01;102655.44;;;5.74;100.00
57568;BME280;43403;51.948;5.922;2023-03-03T10:16:47;102654.63;;;5.92;100.00
57568;BME280;43403;51.948;5.922;2023-03-03T10:19:23;102650.25;;;5.93;100.00
57568;BME280;43403;51.948;5.922;2023-03-03T10:22:07;102651.75;;;5.99;100.00
57568;BME280;43403;51.948;5.922;2023-03-03T10:24:41;102657.03;;;6.16;100.00
57568;BME280;43403;51.948;5.922;2023-03-03T10:30:12;102655.00;;;6.40;99.23
57568;BME280;43403;51.948;5.922;2023-03-03T10:32:54;102657.72;;;6.73;98.87
57568;BME280;43403;51.948;5.922;2023-03-03T10:43:48;102655.41;;;7.20;93.15
57568;BME280;43403;51.948;5.922;2023-03-03T10:51:41;102655.41;;;7.69;89.25
57568;BME280;43403;51.948;5.922;2023-03-03T10:54:17;102654.75;;;7.81;87.47
57568;BME280;43403;51.948;5.922;2023-03-03T11:02:11;102645.47;;;8.23;84.19
57568;BME280;43403;51.948;5.922;2023-03-03T11:07:07;102647.66;;;8.47;82.88
57568;BME280;43403;51.948;5.922;2023-03-03T11:14:39;102638.88;;;8.93;81.69
57568;BME280;43403;51.948;5.922;2023-03-03T11:19:45;102636.19;;;9.08;76.92
57568;BME280;43403;51.948;5.922;2023-03-03T11:33:05;102635.69;;;9.88;73.95
57568;BME280;43403;51.948;5.922;2023-03-03T11:35:37;102629.56;;;10.02;70.16
57568;BME280;43403;51.948;5.922;2023-03-03T11:40:50;102622.19;;;10.21;71.59
57568;BME280;43403;51.948;5.922;2023-03-03T11:43:31;102620.81;;;10.56;71.74
57568;BME280;43403;51.948;5.922;2023-03-03T11:46:10;102618.66;;;10.75;65.74
57568;BME280;43403;51.948;5.922;2023-03-03T11:53:46;102609.84;;;11.02;65.74
57568;BME280;43403;51.948;5.922;2023-03-03T11:58:50;102601.22;;;11.13;64.34
57568;BME280;43403;51.948;5.922;2023-03-03T12:01:27;102607.28;;;11.13;63.62
57568;BME280;43403;51.948;5.922;2023-03-03T12:04:00;102602.16;;;11.12;62.69
57568;BME280;43403;51.948;5.922;2023-03-03T12:06:32;102594.06;;;11.27;62.44
57568;BME280;43403;51.948;5.922;2023-03-03T12:11:52;102595.81;;;11.40;62.17
57568;BME280;43403;51.948;5.922;2023-03-03T12:16:56;102588.75;;;11.53;61.18
57568;BME280;43403;51.948;5.922;2023-03-03T12:19:33;102587.69;;;11.56;60.64
57568;BME280;43403;51.948;5.922;2023-03-03T12:22:10;102586.97;;;11.78;62.31
57568;BME280;43403;51.948;5.922;2023-03-03T12:24:45;102582.22;;;11.83;61.83
57568;BME280;43403;51.948;5.922;2023-03-03T12:32:50;102569.34;;;12.04;61.27
57568;BME280;43403;51.948;5.922;2023-03-03T12:35:38;102571.88;;;11.68;58.18
57568;BME280;43403;51.948;5.922;2023-03-03T12:38:09;102568.69;;;11.76;59.83
57568;BME280;43403;51.948;5.922;2023-03-03T12:40:45;102566.84;;;11.90;58.45
57568;BME280;43403;51.948;5.922;2023-03-03T12:45:50;102562.06;;;12.07;57.69
57568;BME280;43403;51.948;5.922;2023-03-03T12:51:20;102564.06;;;12.39;58.72
57568;BME280;43403;51.948;5.922;2023-03-03T12:56:16;102553.28;;;12.31;58.41
57568;BME280;43403;51.948;5.922;2023-03-03T12:58:52;102555.63;;;12.23;58.73
57568;BME280;43403;51.948;5.922;2023-03-03T13:04:02;102554.28;;;12.06;58.59
57568;BME280;43403;51.948;5.922;2023-03-03T13:14:01;102542.06;;;12.05;54.95
57568;BME280;43403;51.948;5.922;2023-03-03T13:16:32;102538.81;;;12.01;56.66
57568;BME280;43403;51.948;5.922;2023-03-03T13:19:08;102534.00;;;12.19;56.65
57568;BME280;43403;51.948;5.922;2023-03-03T13:24:15;102537.50;;;12.31;55.10
57568;BME280;43403;51.948;5.922;2023-03-03T13:31:39;102528.41;;;12.46;55.17
57568;BME280;43403;51.948;5.922;2023-03-03T13:34:07;102524.28;;;12.66;53.77
57568;BME280;43403;51.948;5.922;2023-03-03T13:39:13;102520.91;;;12.87;54.58
57568;BME280;43403;51.948;5.922;2023-03-03T13:41:44;102527.75;;;13.01;55.10
57568;BME280;43403;51.948;5.922;2023-03-03T13:44:19;102528.22;;;13.06;54.64
57568;BME280;43403;51.948;5.922;2023-03-03T13:47:02;102529.19;;;12.82;53.06
57568;BME280;43403;51.948;5.922;2023-03-03T13:52:07;102519.94;;;12.43;53.05
57568;BME280;43403;51.948;5.922;2023-03-03T14:07:56;102511.19;;;12.42;53.65
57568;BME280;43403;51.948;5.922;2023-03-03T14:16:32;102508.25;;;12.92;53.66
57568;BME280;43403;51.948;5.922;2023-03-03T14:21:48;102505.94;;;12.99;53.05
57568;BME280;43403;51.948;5.922;2023-03-03T14:24:17;102503.19;;;12.89;51.88
57568;BME280;43403;51.948;5.922;2023-03-03T14:26:51;102495.19;;;12.79;53.86
57568;BME280;43403;51.948;5.922;2023-03-03T14:31:47;102496.84;;;12.58;53.52
57568;BME280;43403;51.948;5.922;2023-03-03T14:34:24;102493.38;;;12.46;53.97
57568;BME280;43403;51.948;5.922;2023-03-03T14:36:56;102502.38;;;12.55;54.56
57568;BME280;43403;51.948;5.922;2023-03-03T14:39:25;102493.84;;;12.40;53.10
57568;BME280;43403;51.948;5.922;2023-03-03T14:41:53;102491.31;;;12.38;53.92
57568;BME280;43403;51.948;5.922;2023-03-03T14:44:26;102489.06;;;12.34;53.97
57568;BME280;43403;51.948;5.922;2023-03-03T14:49:35;102493.34;;;12.23;55.02
57568;BME280;43403;51.948;5.922;2023-03-03T14:54:40;102495.94;;;12.12;55.44
57568;BME280;43403;51.948;5.922;2023-03-03T14:59:54;102484.00;;;12.19;55.96
57568;BME280;43403;51.948;5.922;2023-03-03T15:02:26;102489.88;;;12.34;56.45
57568;BME280;43403;51.948;5.922;2023-03-03T15:04:55;102488.22;;;12.44;55.88
57568;BME280;43403;51.948;5.922;2023-03-03T15:07:35;102484.88;;;12.31;54.48
57568;BME280;43403;51.948;5.922;2023-03-03T15:10:02;102488.41;;;12.19;55.63
57568;BME280;43403;51.948;5.922;2023-03-03T15:12:36;102481.50;;;12.18;55.92
57568;BME280;43403;51.948;5.922;2023-03-03T15:17:44;102482.59;;;11.91;56.28
57568;BME280;43403;51.948;5.922;2023-03-03T15:20:42;102476.44;;;11.79;56.12
57568;BME280;43403;51.948;5.922;2023-03-03T15:26:08;102472.09;;;11.67;56.46
57568;BME280;43403;51.948;5.922;2023-03-03T15:29:20;102466.41;;;11.49;55.83
57568;BME280;43403;51.948;5.922;2023-03-03T15:31:44;102467.78;;;11.42;56.35
57568;BME280;43403;51.948;5.922;2023-03-03T15:36:50;102462.97;;;11.12;57.00
57568;BME280;43403;51.948;5.922;2023-03-03T15:44:43;102467.00;;;10.92;57.59
57568;BME280;43403;51.948;5.922;2023-03-03T16:04:17;102464.66;;;10.37;57.92
57568;BME280;43403;51.948;5.922;2023-03-03T16:10:21;102467.75;;;10.04;60.26
57568;BME280;43403;51.948;5.922;2023-03-03T16:13:20;102468.13;;;9.85;60.29
57568;BME280;43403;51.948;5.922;2023-03-03T16:16:04;102468.22;;;9.83;61.01
57568;BME280;43403;51.948;5.922;2023-03-03T16:18:44;102464.63;;;9.72;62.56
57568;BME280;43403;51.948;5.922;2023-03-03T16:21:53;102470.25;;;9.65;60.70
57568;BME280;43403;51.948;5.922;2023-03-03T16:27:26;102473.38;;;9.58;62.18
57568;BME280;43403;51.948;5.922;2023-03-03T16:30:10;102466.56;;;9.55;63.28
57568;BME280;43403;51.948;5.922;2023-03-03T16:32:47;102464.44;;;9.47;62.52
57568;BME280;43403;51.948;5.922;2023-03-03T16:35:28;102471.56;;;9.45;63.48
57568;BME280;43403;51.948;5.922;2023-03-03T16:37:59;102468.38;;;9.40;63.22
57568;BME280;43403;51.948;5.922;2023-03-03T16:40:48;102476.53;;;9.36;64.04
57568;BME280;43403;51.948;5.922;2023-03-03T16:43:24;102482.84;;;9.19;64.50